Currently 59°F in Lake Elsinore, California, USA
59°F
60°F / 59°F
2 mph SE
0.00"
Wednesday, May 22, 2024 1:31 AM PDT

Lake Elsinore, California Weather Summary
Last 36 Hours

Temperature Winds Hourly Humidity Dewpoint
Time Report Norm Report Norm Max Gusts Precip. Rpt. Norm Rpt. Norm Pressure
1Wed 01:31 AM  58.8°F  58°F  2 mph SE  1 mph  6 mph  0.00"  76%  81%  51°F  52°F  N/A
3Wed 01:30 AM  58.7°F  58°F  2 mph SE  1 mph  6 mph  ----  76%  81%  51°F  52°F  N/A
Wed 01:00 AM  59.1°F  59°F  calm  1 mph  5 mph  0.00"  75%  81%  51°F  53°F  N/A
2Wed 12:00 AM  60.3°F  60°F  3 mph SE  1 mph  5 mph  0.00"  73%  79%  51°F  53°F  N/A
Tue 11:00 PM  61.5°F  61°F  2 mph SE  2 mph  5 mph  0.00"  71%  77%  52°F  53°F  N/A
Tue 10:00 PM  63.2°F  62°F  3 mph SE  2 mph  7 mph  0.00"  67%  75%  52°F  54°F  N/A
Tue 09:00 PM  66.1°F  64°F  3 mph SE  3 mph  6 mph  0.00"  60%  70%  51°F  54°F  N/A
Tue 08:00 PM  69.1°F  67°F  3 mph SE  4 mph  10 mph  0.00"  53%  64%  51°F  54°F  N/A
Tue 07:00 PM  73.2°F  72°F  2 mph SE  5 mph  15 mph  0.00"  48%  55%  51°F  54°F  N/A
Tue 06:00 PM  77.8°F  76°F  10 mph SE  5 mph  14 mph  0.00"  42%  47%  52°F  54°F  N/A
Tue 05:00 PM  79.7°F  79°F  4 mph SE  6 mph  15 mph  0.00"  38%  43%  51°F  54°F  N/A
Tue 04:00 PM  80.8°F  81°F  2 mph S  6 mph  9 mph  0.00"  30%  41%  45°F  54°F  N/A
Tue 03:00 PM  79.2°F  81°F  calm  5 mph  10 mph  0.00"  34%  40%  47°F  54°F  N/A
Tue 02:00 PM  78.2°F  81°F  6 mph S  4 mph  8 mph  0.00"  36%  41%  48°F  54°F  N/A
Tue 01:00 PM  75.6°F  78°F  calm  3 mph  9 mph  0.00"  37%  43%  46°F  54°F  N/A
Tue 12:00 PM  72.6°F  76°F  calm  3 mph  8 mph  0.00"  41%  48%  46°F  54°F  N/A
Tue 11:00 AM  71.5°F  72°F  calm  3 mph  7 mph  0.00"  42%  54%  47°F  54°F  N/A
Tue 10:00 AM  67.7°F  69°F  3 mph SE  2 mph  6 mph  0.00"  48%  61%  47°F  54°F  N/A
Tue 09:00 AM  65.1°F  65°F  2 mph S  2 mph  6 mph  0.00"  53%  70%  47°F  54°F  N/A
Tue 08:00 AM  59.1°F  61°F  calm  1 mph  3 mph  0.00"  65%  79%  47°F  54°F  N/A
Tue 07:00 AM  55.4°F  57°F  calm  1 mph  none  0.00"  75%  85%  47°F  52°F  N/A
Tue 06:00 AM  55.0°F  56°F  calm  1 mph  5 mph  0.00"  74%  85%  47°F  51°F  N/A
Tue 05:00 AM  56.5°F  56°F  calm  1 mph  6 mph  0.00"  70%  84%  46°F  51°F  N/A
Tue 04:00 AM  57.3°F  57°F  4 mph S  1 mph  8 mph  0.00"  68%  83%  47°F  51°F  N/A
Tue 03:00 AM  58.1°F  57°F  2 mph SE  1 mph  4 mph  0.00"  66%  82%  47°F  52°F  N/A
Tue 02:00 AM  58.4°F  58°F  calm  1 mph  7 mph  0.00"  67%  81%  47°F  52°F  N/A
Tue 01:00 AM  59.2°F  59°F  3 mph SE  1 mph  8 mph  0.00"  67%  80%  48°F  52°F  N/A
Tue 12:00 AM  59.5°F  60°F  2 mph S  1 mph  7 mph  0.00"  70%  79%  49°F  53°F  N/A
Mon 11:00 PM  59.2°F  61°F  calm  2 mph  7 mph  0.00"  70%  77%  49°F  53°F  N/A
Mon 10:00 PM  59.2°F  62°F  4 mph SE  2 mph  7 mph  0.00"  70%  74%  49°F  54°F  N/A
Mon 09:00 PM  61.5°F  64°F  1 mph SE  3 mph  8 mph  0.00"  65%  70%  49°F  54°F  N/A
Mon 08:00 PM  64.9°F  67°F  4 mph SE  4 mph  10 mph  0.00"  59%  63%  50°F  54°F  N/A
Mon 07:00 PM  69.2°F  72°F  6 mph SE  5 mph  14 mph  0.00"  52%  54%  50°F  54°F  N/A
Mon 06:00 PM  71.5°F  76°F  7 mph SE  5 mph  20 mph  0.00"  48%  47%  50°F  54°F  N/A
Mon 05:00 PM  75.2°F  79°F  8 mph SE  6 mph  19 mph  0.00"  43%  43%  51°F  54°F  N/A
Mon 04:00 PM  79.5°F  81°F  5 mph E  6 mph  14 mph  0.00"  38%  40%  51°F  54°F  N/A
Mon 03:00 PM  76.5°F  82°F  5 mph SE  5 mph  10 mph  0.00"  40%  40%  50°F  54°F  N/A
Mon 02:00 PM  74.6°F  81°F  4 mph SE  4 mph  10 mph  0.00"  44%  40%  51°F  54°F  N/A

  1. Current weather data. No green row appears if the current weather data is also the high or low for the current day.
  2. High temperature for the current day.
  3. Low temperature for the current day.

The Lake Elsinore, California weather pages are a service of WeatherCurrents. Lake Elsinore is located south of Corona and north of the Temecula Valley, in southwestern Riverside County, California.
Copyright ©2024  WeatherCurrents. All rights reserved. - Submit questions and comments - Privacy Policy

This page automatically refreshes every 10 minutes.